sensor_id;sensor_type;location;lat;lon;timestamp;pressure;altitude;pressure_sealevel;temperature;humidity
43621;BME280;29213;50.770;7.298;2023-04-01T00:00:16;98845.50;;;8.95;57.42
43621;BME280;29213;50.770;7.298;2023-04-01T00:02:42;98744.28;;;8.28;57.42
43621;BME280;29213;50.770;7.298;2023-04-01T00:05:08;98787.03;;;8.47;57.21
43621;BME280;29213;50.770;7.298;2023-04-01T00:07:36;98778.22;;;8.39;58.17
43621;BME280;29213;50.770;7.298;2023-04-01T00:10:03;98728.75;;;8.03;58.38
43621;BME280;29213;50.770;7.298;2023-04-01T00:12:28;98674.44;;;7.63;58.43
43621;BME280;29213;50.770;7.298;2023-04-01T00:14:54;98769.25;;;8.12;58.82
43621;BME280;29213;50.770;7.298;2023-04-01T00:17:19;98811.25;;;8.37;58.79
43621;BME280;29213;50.770;7.298;2023-04-01T00:19:45;98813.38;;;8.48;59.07
43621;BME280;29213;50.770;7.298;2023-04-01T00:22:10;98730.50;;;7.89;59.10
43621;BME280;29213;50.770;7.298;2023-04-01T00:24:37;98723.28;;;7.54;58.72
43621;BME280;29213;50.770;7.298;2023-04-01T00:27:03;98831.75;;;8.50;59.21
43621;BME280;29213;50.770;7.298;2023-04-01T00:29:29;98843.28;;;8.64;59.24
43621;BME280;29213;50.770;7.298;2023-04-01T00:31:56;98670.19;;;7.41;59.13
43621;BME280;29213;50.770;7.298;2023-04-01T00:34:22;98774.47;;;8.27;58.83
43621;BME280;29213;50.770;7.298;2023-04-01T00:36:49;98844.97;;;8.72;58.32
43621;BME280;29213;50.770;7.298;2023-04-01T00:39:15;98729.28;;;7.92;58.58
43621;BME280;29213;50.770;7.298;2023-04-01T00:41:40;98722.53;;;7.60;58.38
43621;BME280;29213;50.770;7.298;2023-04-01T00:44:21;98798.66;;;8.46;58.28
43621;BME280;29213;50.770;7.298;2023-04-01T00:46:47;98643.41;;;7.57;58.47
43621;BME280;29213;50.770;7.298;2023-04-01T00:49:13;98837.09;;;8.56;58.08
43621;BME280;29213;50.770;7.298;2023-04-01T00:51:41;98822.00;;;8.57;57.99
43621;BME280;29213;50.770;7.298;2023-04-01T00:54:09;98450.03;;;6.21;58.03
43621;BME280;29213;50.770;7.298;2023-04-01T00:56:37;98821.53;;;8.47;57.54
43621;BME280;29213;50.770;7.298;2023-04-01T00:59:13;98828.75;;;8.60;57.49
43621;BME280;29213;50.770;7.298;2023-04-01T01:01:40;98694.59;;;7.86;57.30
43621;BME280;29213;50.770;7.298;2023-04-01T01:04:05;98646.47;;;7.54;57.46
43621;BME280;29213;50.770;7.298;2023-04-01T01:11:34;98772.72;;;8.12;57.77
43621;BME280;29213;50.770;7.298;2023-04-01T01:14:12;98800.34;;;8.25;57.84
43621;BME280;29213;50.770;7.298;2023-04-01T01:16:48;98820.59;;;8.33;58.15
43621;BME280;29213;50.770;7.298;2023-04-01T01:22:21;98807.88;;;8.50;57.55
43621;BME280;29213;50.770;7.298;2023-04-01T01:25:22;98822.59;;;8.52;57.72
43621;BME280;29213;50.770;7.298;2023-04-01T01:28:01;98747.16;;;7.83;58.07
43621;BME280;29213;50.770;7.298;2023-04-01T01:33:35;98767.22;;;7.92;58.42
43621;BME280;29213;50.770;7.298;2023-04-01T01:36:11;98791.53;;;8.18;58.71
43621;BME280;29213;50.770;7.298;2023-04-01T01:38:38;98828.22;;;8.42;58.67
43621;BME280;29213;50.770;7.298;2023-04-01T01:41:06;98816.94;;;8.34;58.66
43621;BME280;29213;50.770;7.298;2023-04-01T01:43:39;98792.97;;;8.20;57.88
43621;BME280;29213;50.770;7.298;2023-04-01T01:46:10;98834.34;;;8.43;58.34
43621;BME280;29213;50.770;7.298;2023-04-01T01:48:37;98768.44;;;8.11;58.20
43621;BME280;29213;50.770;7.298;2023-04-01T01:51:05;98805.66;;;8.53;58.13
43621;BME280;29213;50.770;7.298;2023-04-01T01:53:31;98589.13;;;7.18;57.89
43621;BME280;29213;50.770;7.298;2023-04-01T01:55:57;98762.59;;;8.23;57.15
43621;BME280;29213;50.770;7.298;2023-04-01T01:58:34;98787.09;;;8.25;57.81
43621;BME280;29213;50.770;7.298;2023-04-01T02:01:08;98837.09;;;8.56;58.03
43621;BME280;29213;50.770;7.298;2023-04-01T02:03:36;98696.31;;;7.72;57.34
43621;BME280;29213;50.770;7.298;2023-04-01T02:06:05;98712.78;;;7.89;57.59
43621;BME280;29213;50.770;7.298;2023-04-01T02:08:35;98778.16;;;8.33;57.01
43621;BME280;29213;50.770;7.298;2023-04-01T02:11:05;98416.44;;;6.15;56.54
43621;BME280;29213;50.770;7.298;2023-04-01T02:16:06;98705.25;;;7.93;56.59
43621;BME280;29213;50.770;7.298;2023-04-01T02:18:35;98714.34;;;8.06;56.55
43621;BME280;29213;50.770;7.298;2023-04-01T02:21:03;98748.75;;;8.27;56.82
43621;BME280;29213;50.770;7.298;2023-04-01T02:23:32;98713.25;;;8.00;56.97
43621;BME280;29213;50.770;7.298;2023-04-01T02:26:00;98554.91;;;6.94;58.01
43621;BME280;29213;50.770;7.298;2023-04-01T02:28:26;98814.56;;;8.74;58.06
43621;BME280;29213;50.770;7.298;2023-04-01T02:30:53;98461.63;;;6.42;58.15
43621;BME280;29213;50.770;7.298;2023-04-01T02:33:19;98819.97;;;8.59;58.17
43621;BME280;29213;50.770;7.298;2023-04-01T02:35:46;98702.34;;;7.88;58.26
43621;BME280;29213;50.770;7.298;2023-04-01T02:38:11;98818.34;;;8.58;58.64
43621;BME280;29213;50.770;7.298;2023-04-01T02:40:49;98605.88;;;7.25;58.79
43621;BME280;29213;50.770;7.298;2023-04-01T02:43:15;98742.28;;;7.86;58.90
43621;BME280;29213;50.770;7.298;2023-04-01T02:45:42;98817.84;;;8.48;59.77
43621;BME280;29213;50.770;7.298;2023-04-01T02:48:08;98740.38;;;8.02;59.47
43621;BME280;29213;50.770;7.298;2023-04-01T02:50:33;98776.28;;;8.26;60.48
43621;BME280;29213;50.770;7.298;2023-04-01T02:53:00;98606.53;;;7.05;60.40
43621;BME280;29213;50.770;7.298;2023-04-01T02:55:25;98530.69;;;6.47;60.81
43621;BME280;29213;50.770;7.298;2023-04-01T02:57:51;98816.16;;;8.40;60.63
43621;BME280;29213;50.770;7.298;2023-04-01T03:00:16;98508.78;;;6.38;61.07
43621;BME280;29213;50.770;7.298;2023-04-01T03:02:42;98795.97;;;8.39;61.12
43621;BME280;29213;50.770;7.298;2023-04-01T03:05:09;98758.31;;;8.00;61.18
43621;BME280;29213;50.770;7.298;2023-04-01T03:07:35;98797.84;;;8.16;62.34
43621;BME280;29213;50.770;7.298;2023-04-01T03:10:01;98799.47;;;8.18;61.73
43621;BME280;29213;50.770;7.298;2023-04-01T03:12:26;98812.84;;;8.31;62.10
43621;BME280;29213;50.770;7.298;2023-04-01T03:14:52;98827.00;;;8.38;61.65
43621;BME280;29213;50.770;7.298;2023-04-01T03:17:17;98766.72;;;8.03;61.82
43621;BME280;29213;50.770;7.298;2023-04-01T03:19:43;98810.44;;;8.36;61.93
43621;BME280;29213;50.770;7.298;2023-04-01T03:22:10;98833.81;;;8.54;61.96
43621;BME280;29213;50.770;7.298;2023-04-01T03:24:36;98737.47;;;7.90;62.07
43621;BME280;29213;50.770;7.298;2023-04-01T03:27:01;98836.84;;;8.51;62.38
43621;BME280;29213;50.770;7.298;2023-04-01T03:29:27;98617.63;;;7.16;62.60
43621;BME280;29213;50.770;7.298;2023-04-01T03:31:52;98821.28;;;8.41;62.27
43621;BME280;29213;50.770;7.298;2023-04-01T03:34:17;98813.47;;;8.33;62.74
43621;BME280;29213;50.770;7.298;2023-04-01T03:36:43;98713.56;;;7.61;63.06
43621;BME280;29213;50.770;7.298;2023-04-01T03:39:08;98825.22;;;8.02;63.59
43621;BME280;29213;50.770;7.298;2023-04-01T03:41:36;98821.22;;;8.06;63.96
43621;BME280;29213;50.770;7.298;2023-04-01T03:44:02;98657.66;;;7.06;63.84
43621;BME280;29213;50.770;7.298;2023-04-01T03:46:27;98656.38;;;7.02;63.76
43621;BME280;29213;50.770;7.298;2023-04-01T03:48:53;98628.69;;;6.82;63.77
43621;BME280;29213;50.770;7.298;2023-04-01T03:51:18;98807.97;;;8.06;63.40
43621;BME280;29213;50.770;7.298;2023-04-01T03:53:44;98706.38;;;7.33;64.23
43621;BME280;29213;50.770;7.298;2023-04-01T03:56:10;98818.66;;;7.98;64.21
43621;BME280;29213;50.770;7.298;2023-04-01T03:58:36;98530.00;;;6.08;64.54
43621;BME280;29213;50.770;7.298;2023-04-01T04:01:01;98464.84;;;5.63;64.68
43621;BME280;29213;50.770;7.298;2023-04-01T04:03:27;98714.56;;;7.17;64.59
43621;BME280;29213;50.770;7.298;2023-04-01T04:05:53;98808.25;;;7.74;64.96
43621;BME280;29213;50.770;7.298;2023-04-01T04:08:18;98641.53;;;6.64;64.93
43621;BME280;29213;50.770;7.298;2023-04-01T04:10:44;98711.41;;;7.06;64.94
43621;BME280;29213;50.770;7.298;2023-04-01T04:13:10;98565.47;;;6.14;64.98
43621;BME280;29213;50.770;7.298;2023-04-01T04:15:35;98700.00;;;7.06;64.58
43621;BME280;29213;50.770;7.298;2023-04-01T04:18:01;98609.72;;;6.42;64.19
43621;BME280;29213;50.770;7.298;2023-04-01T04:20:26;98807.19;;;7.69;64.45
43621;BME280;29213;50.770;7.298;2023-04-01T04:22:52;98534.09;;;6.11;64.09
43621;BME280;29213;50.770;7.298;2023-04-01T04:25:17;98812.88;;;7.87;63.55
43621;BME280;29213;50.770;7.298;2023-04-01T04:27:43;98782.72;;;7.67;63.63
43621;BME280;29213;50.770;7.298;2023-04-01T04:30:09;98608.34;;;6.46;63.55
43621;BME280;29213;50.770;7.298;2023-04-01T04:32:35;98789.78;;;7.59;63.88
43621;BME280;29213;50.770;7.298;2023-04-01T04:35:00;98571.06;;;6.26;63.11
43621;BME280;29213;50.770;7.298;2023-04-01T04:37:26;98812.03;;;7.87;62.87
43621;BME280;29213;50.770;7.298;2023-04-01T04:39:52;98813.69;;;7.88;63.03
43621;BME280;29213;50.770;7.298;2023-04-01T04:42:17;98776.53;;;7.59;62.76
43621;BME280;29213;50.770;7.298;2023-04-01T04:44:43;98694.44;;;7.01;62.51
43621;BME280;29213;50.770;7.298;2023-04-01T04:47:09;98614.66;;;6.45;62.77
43621;BME280;29213;50.770;7.298;2023-04-01T04:49:35;98750.25;;;7.65;62.60
43621;BME280;29213;50.770;7.298;2023-04-01T04:52:00;98727.88;;;7.23;62.22
43621;BME280;29213;50.770;7.298;2023-04-01T04:54:26;98734.16;;;7.22;62.45
43621;BME280;29213;50.770;7.298;2023-04-01T04:56:54;98516.97;;;6.07;62.15
43621;BME280;29213;50.770;7.298;2023-04-01T04:59:20;98512.91;;;5.89;62.13
43621;BME280;29213;50.770;7.298;2023-04-01T05:01:45;98560.88;;;6.08;61.97
43621;BME280;29213;50.770;7.298;2023-04-01T05:04:10;98620.03;;;6.37;63.35
43621;BME280;29213;50.770;7.298;2023-04-01T05:06:36;98753.03;;;7.34;62.76
43621;BME280;29213;50.770;7.298;2023-04-01T05:09:01;98457.03;;;5.55;62.79
43621;BME280;29213;50.770;7.298;2023-04-01T05:11:27;98736.31;;;7.12;62.66
43621;BME280;29213;50.770;7.298;2023-04-01T05:13:52;98799.72;;;7.79;63.06
43621;BME280;29213;50.770;7.298;2023-04-01T05:16:19;98627.22;;;6.58;63.44
43621;BME280;29213;50.770;7.298;2023-04-01T05:18:45;98739.84;;;7.19;63.75
43621;BME280;29213;50.770;7.298;2023-04-01T05:21:12;98760.97;;;7.34;63.66
43621;BME280;29213;50.770;7.298;2023-04-01T05:23:38;98766.66;;;7.31;63.69
43621;BME280;29213;50.770;7.298;2023-04-01T05:26:08;98830.47;;;7.73;64.19
43621;BME280;29213;50.770;7.298;2023-04-01T05:28:34;98819.41;;;7.70;63.61
43621;BME280;29213;50.770;7.298;2023-04-01T05:31:01;98485.13;;;5.33;63.85
43621;BME280;29213;50.770;7.298;2023-04-01T05:33:27;98786.34;;;7.44;64.33
43621;BME280;29213;50.770;7.298;2023-04-01T05:35:54;98840.28;;;7.58;64.81
43621;BME280;29213;50.770;7.298;2023-04-01T05:38:20;98835.34;;;7.55;65.16
43621;BME280;29213;50.770;7.298;2023-04-01T05:40:45;98828.47;;;7.39;65.08
43621;BME280;29213;50.770;7.298;2023-04-01T05:43:11;98840.22;;;7.51;65.47
43621;BME280;29213;50.770;7.298;2023-04-01T05:45:36;98556.00;;;5.74;65.25
43621;BME280;29213;50.770;7.298;2023-04-01T05:48:03;98740.56;;;6.91;65.35
43621;BME280;29213;50.770;7.298;2023-04-01T05:50:28;98784.03;;;7.19;65.32
43621;BME280;29213;50.770;7.298;2023-04-01T05:52:54;98823.16;;;7.39;65.12
43621;BME280;29213;50.770;7.298;2023-04-01T05:55:20;98748.59;;;6.98;65.03
43621;BME280;29213;50.770;7.298;2023-04-01T05:57:46;98867.13;;;7.92;64.95
43621;BME280;29213;50.770;7.298;2023-04-01T06:00:12;98855.53;;;7.93;65.26
43621;BME280;29213;50.770;7.298;2023-04-01T06:02:38;98854.63;;;7.85;65.13
43621;BME280;29213;50.770;7.298;2023-04-01T06:05:23;98854.38;;;7.80;65.28
43621;BME280;29213;50.770;7.298;2023-04-01T06:07:51;98739.16;;;7.11;64.90
43621;BME280;29213;50.770;7.298;2023-04-01T06:10:21;98331.56;;;4.39;64.55
43621;BME280;29213;50.770;7.298;2023-04-01T06:15:53;98421.34;;;4.99;64.25
43621;BME280;29213;50.770;7.298;2023-04-01T06:21:10;98872.69;;;7.97;64.73
43621;BME280;29213;50.770;7.298;2023-04-01T06:23:50;98870.78;;;7.90;64.88
43621;BME280;29213;50.770;7.298;2023-04-01T06:26:45;98856.91;;;7.88;65.41
43621;BME280;29213;50.770;7.298;2023-04-01T06:29:19;98874.31;;;8.13;64.83
43621;BME280;29213;50.770;7.298;2023-04-01T06:32:07;98762.50;;;7.44;64.24
43621;BME280;29213;50.770;7.298;2023-04-01T06:38:06;98883.84;;;8.29;64.03
43621;BME280;29213;50.770;7.298;2023-04-01T06:43:35;98884.56;;;8.45;64.04
43621;BME280;29213;50.770;7.298;2023-04-01T06:46:17;98892.53;;;8.45;63.83
43621;BME280;29213;50.770;7.298;2023-04-01T06:49:07;98685.19;;;7.12;63.78
43621;BME280;29213;50.770;7.298;2023-04-01T06:51:55;98765.78;;;7.68;63.58
43621;BME280;29213;50.770;7.298;2023-04-01T06:54:36;98776.47;;;7.74;63.61
43621;BME280;29213;50.770;7.298;2023-04-01T06:57:28;98762.44;;;7.59;63.08
43621;BME280;29213;50.770;7.298;2023-04-01T06:59:57;98901.44;;;8.59;63.04
43621;BME280;29213;50.770;7.298;2023-04-01T07:02:41;98906.75;;;8.65;63.42
43621;BME280;29213;50.770;7.298;2023-04-01T07:05:11;98619.84;;;6.90;63.50
43621;BME280;29213;50.770;7.298;2023-04-01T07:07:47;98924.06;;;8.83;63.00
43621;BME280;29213;50.770;7.298;2023-04-01T07:10:32;98672.66;;;7.42;62.90
43621;BME280;29213;50.770;7.298;2023-04-01T07:13:21;98910.25;;;8.94;62.79
43621;BME280;29213;50.770;7.298;2023-04-01T07:15:58;98913.72;;;8.95;63.00
43621;BME280;29213;50.770;7.298;2023-04-01T07:18:47;98916.78;;;8.92;62.92
43621;BME280;29213;50.770;7.298;2023-04-01T07:21:25;98918.22;;;8.94;63.60
43621;BME280;29213;50.770;7.298;2023-04-01T07:23:54;98911.84;;;8.89;63.51
43621;BME280;29213;50.770;7.298;2023-04-01T07:26:27;98917.34;;;8.87;63.43
43621;BME280;29213;50.770;7.298;2023-04-01T07:28:54;98913.22;;;8.85;63.67
43621;BME280;29213;50.770;7.298;2023-04-01T07:36:49;98881.16;;;8.51;64.26
43621;BME280;29213;50.770;7.298;2023-04-01T07:42:41;98827.19;;;8.37;63.69
43621;BME280;29213;50.770;7.298;2023-04-01T07:50:26;98931.38;;;9.09;63.68
43621;BME280;29213;50.770;7.298;2023-04-01T07:56:09;98906.25;;;8.77;63.93
43621;BME280;29213;50.770;7.298;2023-04-01T07:58:55;98925.84;;;9.04;64.44
43621;BME280;29213;50.770;7.298;2023-04-01T08:01:36;98948.59;;;9.20;63.81
43621;BME280;29213;50.770;7.298;2023-04-01T08:04:22;98947.16;;;9.18;64.21
43621;BME280;29213;50.770;7.298;2023-04-01T08:09:50;98810.91;;;8.18;63.69
43621;BME280;29213;50.770;7.298;2023-04-01T08:12:59;98921.06;;;8.93;63.91
43621;BME280;29213;50.770;7.298;2023-04-01T08:15:26;98964.53;;;9.20;63.80
43621;BME280;29213;50.770;7.298;2023-04-01T08:17:59;98965.19;;;9.22;63.74
43621;BME280;29213;50.770;7.298;2023-04-01T08:20:36;98933.63;;;9.06;64.65
43621;BME280;29213;50.770;7.298;2023-04-01T08:23:19;98968.88;;;9.28;64.81
43621;BME280;29213;50.770;7.298;2023-04-01T08:25:58;98935.25;;;9.07;64.76
43621;BME280;29213;50.770;7.298;2023-04-01T08:28:32;98919.06;;;9.02;64.84
43621;BME280;29213;50.770;7.298;2023-04-01T08:31:02;98974.06;;;9.43;64.48
43621;BME280;29213;50.770;7.298;2023-04-01T08:33:30;98930.22;;;9.19;65.07
43621;BME280;29213;50.770;7.298;2023-04-01T08:36:45;98974.56;;;9.54;64.62
43621;BME280;29213;50.770;7.298;2023-04-01T08:38:54;98976.25;;;9.61;64.00
43621;BME280;29213;50.770;7.298;2023-04-01T08:44:43;98988.50;;;9.56;65.46
43621;BME280;29213;50.770;7.298;2023-04-01T08:47:27;98838.16;;;8.62;64.71
43621;BME280;29213;50.770;7.298;2023-04-01T08:55:51;98844.03;;;8.29;64.72
43621;BME280;29213;50.770;7.298;2023-04-01T09:01:44;98998.75;;;9.30;65.34
43621;BME280;29213;50.770;7.298;2023-04-01T09:10:24;98956.97;;;8.89;65.52
43621;BME280;29213;50.770;7.298;2023-04-01T09:13:15;98987.34;;;9.08;65.05
43621;BME280;29213;50.770;7.298;2023-04-01T09:18:47;99027.50;;;9.27;65.23
43621;BME280;29213;50.770;7.298;2023-04-01T09:21:36;98964.16;;;8.66;65.93
43621;BME280;29213;50.770;7.298;2023-04-01T09:24:22;98972.63;;;8.55;66.18
43621;BME280;29213;50.770;7.298;2023-04-01T09:27:27;99042.94;;;9.09;66.27
43621;BME280;29213;50.770;7.298;2023-04-01T09:32:53;99035.25;;;9.21;66.21
43621;BME280;29213;50.770;7.298;2023-04-01T09:35:36;99044.66;;;9.24;65.68
43621;BME280;29213;50.770;7.298;2023-04-01T09:38:22;98965.41;;;8.70;66.06
43621;BME280;29213;50.770;7.298;2023-04-01T09:46:19;98864.50;;;8.13;66.21
43621;BME280;29213;50.770;7.298;2023-04-01T09:54:57;98998.69;;;8.95;66.33
43621;BME280;29213;50.770;7.298;2023-04-01T09:57:49;99061.56;;;9.45;66.29
43621;BME280;29213;50.770;7.298;2023-04-01T10:11:34;99080.09;;;9.31;65.78
43621;BME280;29213;50.770;7.298;2023-04-01T10:28:46;98925.97;;;8.02;66.21
43621;BME280;29213;50.770;7.298;2023-04-01T10:31:20;99085.53;;;9.01;65.39
43621;BME280;29213;50.770;7.298;2023-04-01T10:34:18;99091.50;;;9.03;64.29
43621;BME280;29213;50.770;7.298;2023-04-01T10:36:53;98802.81;;;7.24;64.14
43621;BME280;29213;50.770;7.298;2023-04-01T10:39:24;99021.03;;;8.57;64.06
43621;BME280;29213;50.770;7.298;2023-04-01T10:47:44;99045.84;;;8.71;64.76
43621;BME280;29213;50.770;7.298;2023-04-01T10:53:27;99059.44;;;8.83;64.20
43621;BME280;29213;50.770;7.298;2023-04-01T11:13:10;99114.63;;;9.31;63.98
43621;BME280;29213;50.770;7.298;2023-04-01T11:16:00;98655.78;;;6.18;64.26
43621;BME280;29213;50.770;7.298;2023-04-01T11:21:34;99105.56;;;9.26;64.47
43621;BME280;29213;50.770;7.298;2023-04-01T11:24:27;99089.38;;;9.20;64.57
43621;BME280;29213;50.770;7.298;2023-04-01T11:27:19;99115.41;;;9.54;64.50
43621;BME280;29213;50.770;7.298;2023-04-01T11:38:17;99132.47;;;9.66;63.96
43621;BME280;29213;50.770;7.298;2023-04-01T11:40:59;99134.56;;;9.71;63.90
43621;BME280;29213;50.770;7.298;2023-04-01T11:43:38;99050.97;;;9.16;63.94
43621;BME280;29213;50.770;7.298;2023-04-01T11:46:15;99135.34;;;9.65;63.61
43621;BME280;29213;50.770;7.298;2023-04-01T11:51:42;99146.78;;;9.65;64.14
43621;BME280;29213;50.770;7.298;2023-04-01T11:57:35;99155.25;;;9.75;65.08
43621;BME280;29213;50.770;7.298;2023-04-01T12:09:25;99170.00;;;9.49;65.17
43621;BME280;29213;50.770;7.298;2023-04-01T12:12:14;99171.28;;;9.60;65.23
43621;BME280;29213;50.770;7.298;2023-04-01T12:17:53;98885.31;;;7.95;65.34
43621;BME280;29213;50.770;7.298;2023-04-01T12:20:30;99181.22;;;9.73;65.69
43621;BME280;29213;50.770;7.298;2023-04-01T12:23:08;99075.63;;;8.88;65.68
43621;BME280;29213;50.770;7.298;2023-04-01T12:31:55;99164.50;;;9.80;64.45
43621;BME280;29213;50.770;7.298;2023-04-01T12:39:48;99008.00;;;8.84;64.42
43621;BME280;29213;50.770;7.298;2023-04-01T12:42:47;99105.38;;;9.49;64.42
43621;BME280;29213;50.770;7.298;2023-04-01T12:45:31;99176.09;;;10.00;63.63
43621;BME280;29213;50.770;7.298;2023-04-01T12:48:01;99165.81;;;9.97;63.61
43621;BME280;29213;50.770;7.298;2023-04-01T12:56:44;99181.41;;;10.00;63.89
43621;BME280;29213;50.770;7.298;2023-04-01T13:02:24;98991.81;;;8.79;63.62
43621;BME280;29213;50.770;7.298;2023-04-01T13:18:49;99014.31;;;8.61;62.77
43621;BME280;29213;50.770;7.298;2023-04-01T13:24:22;99156.72;;;9.49;62.67
43621;BME280;29213;50.770;7.298;2023-04-01T13:29:24;99247.72;;;9.80;62.34
43621;BME280;29213;50.770;7.298;2023-04-01T13:35:10;98980.44;;;8.20;62.13
43621;BME280;29213;50.770;7.298;2023-04-01T13:40:51;99213.00;;;9.60;62.00
43621;BME280;29213;50.770;7.298;2023-04-01T13:43:43;99193.63;;;9.44;62.12
43621;BME280;29213;50.770;7.298;2023-04-01T13:52:31;99249.88;;;9.92;61.91
43621;BME280;29213;50.770;7.298;2023-04-01T13:55:14;98951.16;;;7.91;61.68
43621;BME280;29213;50.770;7.298;2023-04-01T13:58:07;99241.75;;;10.00;62.17
43621;BME280;29213;50.770;7.298;2023-04-01T14:03:26;99262.16;;;10.21;61.99
43621;BME280;29213;50.770;7.298;2023-04-01T14:06:17;98918.91;;;7.72;61.53
43621;BME280;29213;50.770;7.298;2023-04-01T14:12:43;98745.28;;;6.96;61.86
43621;BME280;29213;50.770;7.298;2023-04-01T14:25:12;99271.09;;;10.13;63.17
43621;BME280;29213;50.770;7.298;2023-04-01T14:30:46;99019.94;;;8.14;62.92
43621;BME280;29213;50.770;7.298;2023-04-01T14:33:39;99217.44;;;9.53;62.85
43621;BME280;29213;50.770;7.298;2023-04-01T14:39:18;99287.31;;;9.90;62.48
43621;BME280;29213;50.770;7.298;2023-04-01T14:42:14;99197.91;;;9.23;62.73
43621;BME280;29213;50.770;7.298;2023-04-01T14:45:02;99188.06;;;9.17;62.42
43621;BME280;29213;50.770;7.298;2023-04-01T14:47:46;99259.13;;;9.74;63.00
43621;BME280;29213;50.770;7.298;2023-04-01T14:50:15;99253.31;;;9.63;62.82
43621;BME280;29213;50.770;7.298;2023-04-01T14:52:55;99078.09;;;8.31;63.60
43621;BME280;29213;50.770;7.298;2023-04-01T14:55:30;99296.16;;;9.75;63.36
43621;BME280;29213;50.770;7.298;2023-04-01T14:58:08;99255.75;;;9.43;63.24
43621;BME280;29213;50.770;7.298;2023-04-01T15:06:43;99172.41;;;8.70;64.95
43621;BME280;29213;50.770;7.298;2023-04-01T15:09:17;99324.25;;;9.63;64.88
43621;BME280;29213;50.770;7.298;2023-04-01T15:11:56;99307.13;;;9.66;64.68
43621;BME280;29213;50.770;7.298;2023-04-01T15:14:38;99180.75;;;8.82;63.81
43621;BME280;29213;50.770;7.298;2023-04-01T15:17:27;99254.22;;;9.34;63.88
43621;BME280;29213;50.770;7.298;2023-04-01T15:20:13;99287.50;;;9.67;63.99
43621;BME280;29213;50.770;7.298;2023-04-01T15:23:13;99305.91;;;9.68;63.76
43621;BME280;29213;50.770;7.298;2023-04-01T15:29:06;99208.16;;;9.27;63.39
43621;BME280;29213;50.770;7.298;2023-04-01T15:34:32;99332.50;;;10.12;63.00
43621;BME280;29213;50.770;7.298;2023-04-01T15:39:55;99343.00;;;10.20;62.65
43621;BME280;29213;50.770;7.298;2023-04-01T15:48:18;99104.53;;;8.24;63.38
43621;BME280;29213;50.770;7.298;2023-04-01T15:54:19;99361.16;;;9.73;63.92
43621;BME280;29213;50.770;7.298;2023-04-01T15:57:24;99368.88;;;9.68;63.70
43621;BME280;29213;50.770;7.298;2023-04-01T16:07:43;99374.72;;;9.78;64.60
43621;BME280;29213;50.770;7.298;2023-04-01T16:10:29;99361.09;;;9.66;65.42
43621;BME280;29213;50.770;7.298;2023-04-01T16:18:51;99228.69;;;8.81;64.82
43621;BME280;29213;50.770;7.298;2023-04-01T16:21:33;99393.72;;;9.75;65.04
43621;BME280;29213;50.770;7.298;2023-04-01T16:24:13;99229.75;;;8.65;65.34
43621;BME280;29213;50.770;7.298;2023-04-01T16:26:49;99306.78;;;9.02;65.46
43621;BME280;29213;50.770;7.298;2023-04-01T16:29:30;99225.38;;;8.42;65.33
43621;BME280;29213;50.770;7.298;2023-04-01T16:32:02;99405.22;;;9.60;65.23
43621;BME280;29213;50.770;7.298;2023-04-01T16:34:35;99088.06;;;7.69;64.98
43621;BME280;29213;50.770;7.298;2023-04-01T16:37:10;99084.03;;;7.58;65.54
43621;BME280;29213;50.770;7.298;2023-04-01T16:42:48;99374.06;;;9.39;65.50
43621;BME280;29213;50.770;7.298;2023-04-01T16:48:05;99434.19;;;9.55;65.35
43621;BME280;29213;50.770;7.298;2023-04-01T16:51:01;99375.72;;;9.25;65.33
43621;BME280;29213;50.770;7.298;2023-04-01T16:53:47;99442.78;;;9.57;65.24
43621;BME280;29213;50.770;7.298;2023-04-01T16:56:24;99421.63;;;9.34;64.96
43621;BME280;29213;50.770;7.298;2023-04-01T16:59:06;99343.69;;;8.81;65.76
43621;BME280;29213;50.770;7.298;2023-04-01T17:02:08;99448.72;;;9.29;66.07
43621;BME280;29213;50.770;7.298;2023-04-01T17:04:57;99304.50;;;8.38;66.01
43621;BME280;29213;50.770;7.298;2023-04-01T17:10:07;99459.47;;;9.36;65.83
43621;BME280;29213;50.770;7.298;2023-04-01T17:15:32;99470.53;;;9.25;66.11
43621;BME280;29213;50.770;7.298;2023-04-01T17:18:12;99376.00;;;8.70;65.73
43621;BME280;29213;50.770;7.298;2023-04-01T17:20:58;99456.41;;;9.09;65.80
43621;BME280;29213;50.770;7.298;2023-04-01T17:23:35;99422.25;;;8.91;66.11
43621;BME280;29213;50.770;7.298;2023-04-01T17:31:45;99497.28;;;9.38;66.06
43621;BME280;29213;50.770;7.298;2023-04-01T17:37:20;99414.09;;;8.92;65.61
43621;BME280;29213;50.770;7.298;2023-04-01T17:40:13;99414.19;;;8.84;65.50
43621;BME280;29213;50.770;7.298;2023-04-01T17:42:46;99177.16;;;7.31;65.72
43621;BME280;29213;50.770;7.298;2023-04-01T17:48:30;99464.34;;;8.79;65.69
43621;BME280;29213;50.770;7.298;2023-04-01T18:04:43;99517.19;;;8.89;65.59
43621;BME280;29213;50.770;7.298;2023-04-01T18:07:41;99543.34;;;9.15;65.74
43621;BME280;29213;50.770;7.298;2023-04-01T18:12:52;99536.50;;;8.82;65.57
43621;BME280;29213;50.770;7.298;2023-04-01T18:15:31;99554.91;;;8.84;65.57
43621;BME280;29213;50.770;7.298;2023-04-01T18:21:42;99344.47;;;7.35;65.37
43621;BME280;29213;50.770;7.298;2023-04-01T18:24:28;99510.47;;;8.31;65.45
43621;BME280;29213;50.770;7.298;2023-04-01T18:27:06;99561.22;;;8.60;65.43
43621;BME280;29213;50.770;7.298;2023-04-01T18:32:18;99589.06;;;8.64;65.96
43621;BME280;29213;50.770;7.298;2023-04-01T18:39:52;99545.41;;;8.11;66.40
43621;BME280;29213;50.770;7.298;2023-04-01T18:42:41;99603.72;;;8.51;66.41
43621;BME280;29213;50.770;7.298;2023-04-01T18:45:17;99577.06;;;8.45;66.20
43621;BME280;29213;50.770;7.298;2023-04-01T18:47:50;99527.78;;;8.19;65.80
43621;BME280;29213;50.770;7.298;2023-04-01T18:50:41;99615.06;;;8.68;66.07
43621;BME280;29213;50.770;7.298;2023-04-01T18:53:26;99617.84;;;8.75;65.96
43621;BME280;29213;50.770;7.298;2023-04-01T18:56:05;99470.88;;;7.58;66.16
43621;BME280;29213;50.770;7.298;2023-04-01T18:58:59;99560.44;;;8.19;66.09
43621;BME280;29213;50.770;7.298;2023-04-01T19:01:41;99593.22;;;8.26;65.67
43621;BME280;29213;50.770;7.298;2023-04-01T19:04:23;99537.88;;;7.83;65.81
43621;BME280;29213;50.770;7.298;2023-04-01T19:06:57;99562.66;;;7.99;65.67
43621;BME280;29213;50.770;7.298;2023-04-01T19:09:42;99638.22;;;8.51;65.54
43621;BME280;29213;50.770;7.298;2023-04-01T19:15:29;99507.28;;;7.64;65.58